CYWE

Wekweeti

Wekweeti, Northwest Territories, Canada
METAR CYWE 172200Z AUTO 33010G15KT 9SM -RA FEW043 SCT055 BKN068 OVC084 14/13 A2968 RMK PCPN 2.0MM PAST HR SLP063 DENSITY ALT 1600FT
Observed Flight Rules
Jul-17 @ 22:00 UTC (55 minutes ago) Visual Flight Rules
Wind Visibility Clouds Conditions
330° at 10 knots
 Gusting to 15 knots
9 miles
  • Few at 4,300' AGL
  • Scattered at 5,500' AGL
  • Broken at 6,800' AGL
  • Overcast at 8,400' AGL
  • Light Rain
Temperatures Readings
Current 14°C / 57°F
Dewpoint 13°C / 55°F
Humidity 94%
Altimeter 29.68" Hg
Pressure 1006.3 hPa
Elevation 371
METAR CYWE 172200Z AUTO 33010G15KT 9SM -RA FEW043 SCT055 BKN068 OVC084 14/13 A2968 RMK PCPN 2.0MM PAST HR SLP063 DENSITY ALT 1600FT
Observed Flight Rules
Jul-17 @ 22:00 UTC
(55 minutes ago)
VFR
Wind Visibility
330° at 10 knots
 Gusting to 15 knots
9 miles
Clouds
  • Few at 4,300' AGL
  • Scattered at 5,500' AGL
  • Broken at 6,800' AGL
  • Overcast at 8,400' AGL
Conditions
  • Light Rain
Temperature Dewpoint
14°C / 57°F 13°C / 55°F
Humidity Altimeter Pressure
94% 29.68" Hg 1006.3 hPa